createdAt,value
2023-05-19T00:01:20.258Z,10.20
2023-05-19T00:04:02.952Z,10.10
2023-05-19T00:06:32.655Z,10.10
2023-05-19T00:09:09.984Z,10.10
2023-05-19T00:11:38.573Z,10.00
2023-05-19T00:14:10.033Z,10.00
2023-05-19T00:16:38.008Z,9.90
2023-05-19T00:19:06.498Z,9.90
2023-05-19T00:21:33.596Z,9.80
2023-05-19T00:24:00.549Z,9.80
2023-05-19T00:26:28.067Z,9.80
2023-05-19T00:28:59.999Z,9.70
2023-05-19T00:31:27.154Z,9.70
2023-05-19T00:33:55.491Z,9.60
2023-05-19T00:36:22.562Z,9.60
2023-05-19T00:38:51.068Z,9.50
2023-05-19T00:41:18.415Z,9.50
2023-05-19T00:43:45.440Z,9.40
2023-05-19T00:46:12.506Z,9.40
2023-05-19T00:48:39.330Z,9.40
2023-05-19T00:51:06.637Z,9.30
2023-05-19T00:53:34.653Z,9.30
2023-05-19T00:56:02.908Z,9.20
2023-05-19T00:58:31.054Z,9.20
2023-05-19T01:01:07.327Z,9.00
2023-05-19T01:03:36.077Z,9.00
2023-05-19T01:06:07.262Z,9.00
2023-05-19T01:08:36.485Z,8.90
2023-05-19T01:11:07.546Z,8.90
2023-05-19T01:13:36.137Z,8.90
2023-05-19T01:16:27.917Z,8.80
2023-05-19T01:19:03.757Z,8.80
2023-05-19T01:21:46.299Z,8.80
2023-05-19T01:24:24.304Z,8.80
2023-05-19T01:27:15.193Z,8.80
2023-05-19T01:29:55.121Z,8.70
2023-05-19T01:32:23.928Z,8.70
2023-05-19T01:34:51.420Z,8.80
2023-05-19T01:37:19.092Z,8.70
2023-05-19T01:39:47.612Z,8.70
2023-05-19T01:42:15.260Z,8.70
2023-05-19T01:44:42.790Z,8.80
2023-05-19T01:47:10.981Z,8.80
2023-05-19T01:49:37.961Z,8.70
2023-05-19T01:52:05.351Z,8.80
2023-05-19T01:54:32.197Z,8.70
2023-05-19T01:57:24.336Z,8.70
2023-05-19T01:59:51.870Z,8.70
2023-05-19T02:02:34.385Z,8.70
2023-05-19T02:05:18.568Z,8.70
2023-05-19T02:07:52.481Z,8.70
2023-05-19T02:10:25.329Z,8.70
2023-05-19T02:12:54.004Z,8.70
2023-05-19T02:15:26.564Z,8.60
2023-05-19T02:17:55.534Z,8.80
2023-05-19T02:20:22.818Z,8.70
2023-05-19T02:22:49.814Z,8.70
2023-05-19T02:25:16.730Z,8.80
2023-05-19T02:27:43.635Z,8.70
2023-05-19T02:30:10.978Z,8.70
2023-05-19T02:32:37.949Z,8.70
2023-05-19T02:35:05.302Z,8.70
2023-05-19T02:37:32.582Z,8.70
2023-05-19T02:39:59.565Z,8.80
2023-05-19T02:42:26.452Z,8.80
2023-05-19T02:44:54.791Z,8.90
2023-05-19T02:47:21.798Z,8.80
2023-05-19T02:49:48.691Z,8.70
2023-05-19T02:52:15.826Z,8.80
2023-05-19T02:54:42.896Z,8.80
2023-05-19T02:57:11.178Z,8.80
2023-05-19T02:59:38.079Z,8.90
2023-05-19T03:02:05.149Z,8.80
2023-05-19T03:04:32.079Z,8.80
2023-05-19T03:06:58.989Z,8.80
2023-05-19T03:09:25.856Z,8.90
2023-05-19T03:11:52.918Z,8.90
2023-05-19T03:14:23.882Z,8.90
2023-05-19T03:16:51.324Z,8.80
2023-05-19T03:19:18.400Z,8.90
2023-05-19T03:21:45.488Z,8.90
2023-05-19T03:24:12.300Z,8.90
2023-05-19T03:26:39.510Z,8.90
2023-05-19T03:29:06.455Z,8.90
2023-05-19T03:31:36.222Z,8.80
2023-05-19T03:34:03.761Z,8.80
2023-05-19T03:36:32.158Z,8.80
2023-05-19T03:39:00.723Z,8.70
2023-05-19T03:41:27.987Z,8.70
2023-05-19T03:43:55.933Z,8.70
2023-05-19T03:46:22.870Z,8.60
2023-05-19T03:48:49.764Z,8.70
2023-05-19T03:51:43.206Z,8.70
2023-05-19T03:54:23.864Z,8.70
2023-05-19T03:56:51.346Z,8.70
2023-05-19T03:59:18.292Z,8.70
2023-05-19T04:01:46.394Z,8.70
2023-05-19T04:04:13.367Z,8.70
2023-05-19T04:06:42.836Z,8.70
2023-05-19T04:09:14.002Z,8.70
2023-05-19T04:11:41.709Z,8.70
2023-05-19T04:14:09.449Z,8.70
2023-05-19T04:16:36.999Z,8.70
2023-05-19T04:19:04.034Z,8.80
2023-05-19T04:21:30.987Z,8.80
2023-05-19T04:24:00.039Z,8.80
2023-05-19T04:26:30.740Z,8.90
2023-05-19T04:28:57.952Z,8.90
2023-05-19T04:31:25.243Z,8.90
2023-05-19T04:33:53.456Z,9.00
2023-05-19T04:36:21.591Z,9.00
2023-05-19T04:38:54.779Z,9.00
2023-05-19T04:41:23.604Z,9.00
2023-05-19T04:43:50.970Z,9.00
2023-05-19T04:46:24.216Z,9.00
2023-05-19T04:48:53.335Z,9.00
2023-05-19T04:51:21.083Z,9.10
2023-05-19T04:53:49.960Z,9.10
2023-05-19T04:56:16.917Z,9.10
2023-05-19T04:58:45.044Z,9.20
2023-05-19T05:01:13.860Z,9.20
2023-05-19T05:03:41.244Z,9.20
2023-05-19T05:06:08.801Z,9.30
2023-05-19T05:08:40.467Z,9.40
2023-05-19T05:11:07.850Z,9.40
2023-05-19T05:13:35.029Z,9.30
2023-05-19T05:16:02.237Z,9.50
2023-05-19T05:18:29.545Z,9.50
2023-05-19T05:20:57.077Z,9.60
2023-05-19T05:23:25.655Z,9.60
2023-05-19T05:25:52.989Z,9.70
2023-05-19T05:28:20.739Z,9.70
2023-05-19T05:30:49.024Z,9.80
2023-05-19T05:33:16.586Z,9.80
2023-05-19T05:35:43.877Z,9.90
2023-05-19T05:38:16.619Z,9.90
2023-05-19T05:40:43.505Z,10.00
2023-05-19T05:43:10.459Z,10.00
2023-05-19T05:45:44.343Z,10.00
2023-05-19T05:48:11.527Z,10.10
2023-05-19T05:50:39.122Z,10.10
2023-05-19T05:53:07.669Z,10.10
2023-05-19T05:55:37.490Z,10.10
2023-05-19T05:58:06.289Z,10.20
2023-05-19T06:00:34.582Z,10.20
2023-05-19T06:03:03.137Z,10.30
2023-05-19T06:05:30.955Z,10.30
2023-05-19T06:07:57.955Z,10.30
2023-05-19T06:10:29.217Z,10.30
2023-05-19T06:12:56.357Z,10.40
2023-05-19T06:15:24.050Z,10.40
2023-05-19T06:17:58.668Z,10.40
2023-05-19T06:20:25.689Z,10.40
2023-05-19T06:22:52.841Z,10.40
2023-05-19T06:25:21.675Z,10.50
2023-05-19T06:27:48.901Z,10.50
2023-05-19T06:30:18.995Z,10.50
2023-05-19T06:33:09.109Z,10.50
2023-05-19T06:35:36.086Z,10.60
2023-05-19T06:38:03.227Z,10.50
2023-05-19T06:40:30.543Z,10.60
2023-05-19T06:42:57.671Z,10.60
2023-05-19T06:45:52.488Z,10.60
2023-05-19T06:48:19.567Z,10.60
2023-05-19T06:50:46.400Z,10.60
2023-05-19T06:53:13.476Z,10.70
2023-05-19T06:55:50.789Z,10.70
2023-05-19T06:58:26.665Z,10.70
2023-05-19T07:00:53.697Z,10.70
2023-05-19T07:03:21.307Z,10.70
2023-05-19T07:05:48.774Z,10.80
2023-05-19T07:08:15.765Z,10.80
2023-05-19T07:10:43.503Z,10.70
2023-05-19T07:13:13.342Z,10.80
2023-05-19T07:15:41.233Z,10.90
2023-05-19T07:18:08.101Z,10.90
2023-05-19T07:20:35.977Z,10.90
2023-05-19T07:23:02.951Z,11.00
2023-05-19T07:25:30.540Z,11.00
2023-05-19T07:27:57.730Z,11.00
2023-05-19T07:30:24.836Z,11.10
2023-05-19T07:32:51.735Z,11.00
2023-05-19T07:35:20.426Z,11.20
2023-05-19T07:37:47.752Z,11.20
2023-05-19T07:40:14.993Z,11.20
2023-05-19T07:42:41.919Z,11.30
2023-05-19T07:45:09.194Z,11.30
2023-05-19T07:47:36.131Z,11.20
2023-05-19T07:50:03.623Z,11.40
2023-05-19T07:52:30.510Z,11.50
2023-05-19T07:54:57.435Z,11.50
2023-05-19T07:57:24.404Z,11.50
2023-05-19T07:59:51.318Z,11.60
2023-05-19T08:02:18.212Z,11.60
2023-05-19T08:04:45.850Z,11.60
2023-05-19T08:07:12.711Z,11.70
2023-05-19T08:09:39.613Z,11.70
2023-05-19T08:12:06.705Z,11.80
2023-05-19T08:14:34.852Z,11.70
2023-05-19T08:17:01.856Z,11.80
2023-05-19T08:19:28.809Z,11.90
2023-05-19T08:21:55.973Z,11.90
2023-05-19T08:24:22.802Z,12.00
2023-05-19T08:26:51.736Z,12.00
2023-05-19T08:29:18.622Z,12.10
2023-05-19T08:31:45.614Z,12.10
2023-05-19T08:34:13.098Z,12.20
2023-05-19T08:36:40.815Z,12.30
2023-05-19T08:39:08.183Z,12.30
2023-05-19T08:41:35.093Z,12.30
2023-05-19T08:44:02.133Z,12.40
2023-05-19T08:46:29.523Z,12.40
2023-05-19T08:49:02.214Z,12.40
2023-05-19T08:51:54.926Z,12.50
2023-05-19T08:54:25.577Z,12.60
2023-05-19T08:56:52.477Z,12.60
2023-05-19T08:59:21.580Z,12.70
2023-05-19T09:01:50.155Z,12.70
2023-05-19T09:04:17.390Z,12.80
2023-05-19T09:06:45.125Z,12.90
2023-05-19T09:09:12.240Z,12.90
2023-05-19T09:11:39.070Z,13.00
2023-05-19T09:14:06.167Z,13.00
2023-05-19T09:16:34.325Z,13.00
2023-05-19T09:19:01.422Z,13.00
2023-05-19T09:21:32.578Z,13.00
2023-05-19T09:24:06.178Z,13.10
2023-05-19T09:26:40.043Z,13.20
2023-05-19T09:29:17.152Z,13.20
2023-05-19T09:32:01.059Z,13.30
2023-05-19T09:34:28.401Z,13.40
2023-05-19T09:36:55.358Z,13.40
2023-05-19T09:39:26.022Z,13.50
2023-05-19T09:41:54.746Z,13.60
2023-05-19T09:44:22.114Z,13.60
2023-05-19T09:46:53.145Z,13.70
2023-05-19T09:49:21.807Z,13.70
2023-05-19T09:51:55.190Z,13.80
2023-05-19T09:54:27.492Z,13.80
2023-05-19T09:57:02.063Z,13.80
2023-05-19T09:59:32.340Z,13.90
2023-05-19T10:02:02.086Z,13.90
2023-05-19T10:04:30.448Z,14.00
2023-05-19T10:07:05.369Z,14.00
2023-05-19T10:09:33.857Z,14.10
2023-05-19T10:12:01.094Z,14.10
2023-05-19T10:14:29.344Z,14.30
2023-05-19T10:16:57.845Z,14.40
2023-05-19T10:19:29.049Z,14.40
2023-05-19T10:21:56.575Z,14.50
2023-05-19T10:24:24.140Z,14.60
2023-05-19T10:27:03.494Z,14.70
2023-05-19T10:29:35.937Z,14.70
2023-05-19T10:32:10.028Z,14.70
2023-05-19T10:34:59.960Z,14.80
2023-05-19T10:37:33.093Z,14.90
2023-05-19T10:40:01.228Z,14.90
2023-05-19T10:42:34.939Z,15.00
2023-05-19T10:45:17.551Z,15.00
2023-05-19T10:47:45.056Z,15.10
2023-05-19T10:50:12.190Z,15.20
2023-05-19T10:52:40.183Z,15.20
2023-05-19T10:55:17.736Z,15.30
2023-05-19T10:57:56.692Z,15.40
2023-05-19T11:00:28.839Z,15.40
2023-05-19T11:03:16.289Z,15.40
2023-05-19T11:05:45.655Z,15.50
2023-05-19T11:08:13.186Z,15.50
2023-05-19T11:10:43.463Z,15.50
2023-05-19T11:13:19.548Z,15.50
2023-05-19T11:15:46.603Z,15.50
2023-05-19T11:18:16.063Z,15.60
2023-05-19T11:20:44.300Z,15.60
2023-05-19T11:23:19.506Z,15.70
2023-05-19T11:25:52.177Z,15.90
2023-05-19T11:28:22.754Z,15.90
2023-05-19T11:30:50.718Z,16.00
2023-05-19T11:33:19.505Z,16.10
2023-05-19T11:35:49.340Z,16.20
2023-05-19T11:38:18.590Z,16.20
2023-05-19T11:40:45.840Z,16.20
2023-05-19T11:43:12.663Z,16.30
2023-05-19T11:45:39.644Z,16.50
2023-05-19T11:48:06.997Z,16.60
2023-05-19T11:50:35.298Z,16.70
2023-05-19T11:53:02.574Z,16.80
2023-05-19T11:55:30.241Z,16.90
2023-05-19T11:58:05.782Z,17.00
2023-05-19T12:00:39.681Z,17.10
2023-05-19T12:03:08.887Z,17.10
2023-05-19T12:05:48.051Z,17.10
2023-05-19T12:08:18.616Z,17.20
2023-05-19T12:10:48.401Z,17.30
2023-05-19T12:13:15.252Z,17.40
2023-05-19T12:15:42.105Z,17.30
2023-05-19T12:18:09.598Z,17.40
2023-05-19T12:20:37.256Z,17.30
2023-05-19T12:23:04.474Z,17.40
2023-05-19T12:25:32.046Z,17.50
2023-05-19T12:28:02.783Z,17.50
2023-05-19T12:30:31.130Z,17.60
2023-05-19T12:32:58.660Z,17.70
2023-05-19T12:35:33.319Z,17.90
2023-05-19T12:38:09.396Z,18.10
2023-05-19T12:40:37.750Z,18.30
2023-05-19T12:43:06.622Z,18.50
2023-05-19T12:45:37.473Z,18.70
2023-05-19T12:48:11.655Z,18.70
2023-05-19T12:50:38.903Z,18.90
2023-05-19T12:53:11.777Z,19.00
2023-05-19T12:55:43.003Z,19.10
2023-05-19T12:58:15.727Z,19.30
2023-05-19T13:00:45.474Z,19.40
2023-05-19T13:03:20.335Z,19.60
2023-05-19T13:05:49.838Z,19.60
2023-05-19T13:08:20.099Z,19.70
2023-05-19T13:10:47.711Z,19.80
2023-05-19T13:13:14.987Z,20.00
2023-05-19T13:15:44.412Z,20.20
2023-05-19T13:18:13.129Z,20.30
2023-05-19T13:20:41.627Z,20.50
2023-05-19T13:23:10.602Z,20.60
2023-05-19T13:25:37.626Z,20.60
2023-05-19T13:28:05.893Z,20.70
2023-05-19T13:30:34.798Z,20.90
2023-05-19T13:33:02.603Z,21.00
2023-05-19T13:35:37.357Z,21.20
2023-05-19T13:38:11.248Z,21.40
2023-05-19T13:40:40.248Z,21.60
2023-05-19T13:43:08.522Z,21.70
2023-05-19T13:45:35.642Z,21.80
2023-05-19T13:48:02.846Z,21.90
2023-05-19T13:50:30.002Z,22.10
2023-05-19T13:52:57.010Z,22.10
2023-05-19T13:55:24.222Z,22.10
2023-05-19T13:57:51.250Z,22.20
2023-05-19T14:00:19.357Z,22.20
2023-05-19T14:02:46.464Z,22.10
2023-05-19T14:05:13.660Z,22.00
2023-05-19T14:07:40.610Z,21.90
2023-05-19T14:10:08.226Z,21.80
2023-05-19T14:12:49.425Z,21.70
2023-05-19T14:15:23.741Z,21.70
2023-05-19T14:17:50.899Z,21.70
2023-05-19T14:20:17.775Z,21.60
2023-05-19T14:22:44.769Z,21.60
2023-05-19T14:25:11.717Z,21.50
2023-05-19T14:27:39.997Z,21.50
2023-05-19T14:30:08.224Z,21.50
2023-05-19T14:32:35.196Z,21.60
2023-05-19T14:35:02.480Z,21.80
2023-05-19T14:37:29.386Z,22.00
2023-05-19T14:39:57.894Z,22.10
2023-05-19T14:42:25.034Z,22.30
2023-05-19T14:44:52.221Z,22.50
2023-05-19T14:47:19.032Z,22.70
2023-05-19T14:49:45.874Z,22.90
2023-05-19T14:52:13.221Z,23.00
2023-05-19T14:54:40.172Z,23.00
2023-05-19T14:57:08.097Z,23.00
2023-05-19T14:59:38.617Z,22.90
2023-05-19T15:02:05.912Z,22.80
2023-05-19T15:04:32.915Z,22.80
2023-05-19T15:07:09.878Z,22.80
2023-05-19T15:09:37.633Z,22.90
2023-05-19T15:12:04.990Z,23.00
2023-05-19T15:14:31.880Z,23.10
2023-05-19T15:16:59.170Z,23.20
2023-05-19T15:19:26.712Z,23.30
2023-05-19T15:21:54.220Z,23.40
2023-05-19T15:24:21.191Z,23.50
2023-05-19T15:26:48.320Z,23.50
2023-05-19T15:29:15.527Z,23.50
2023-05-19T15:31:42.409Z,23.50
2023-05-19T15:34:09.557Z,23.30
2023-05-19T15:36:36.515Z,23.20
2023-05-19T15:39:03.899Z,23.10
2023-05-19T15:41:30.979Z,22.90
2023-05-19T15:44:00.244Z,22.80
2023-05-19T15:46:27.543Z,22.70
2023-05-19T15:48:55.597Z,22.60
2023-05-19T15:51:22.488Z,22.50
2023-05-19T15:53:49.429Z,22.50
2023-05-19T15:56:16.536Z,22.40
2023-05-19T15:58:43.514Z,22.40
2023-05-19T16:01:10.477Z,22.40
2023-05-19T16:03:37.571Z,22.30
2023-05-19T16:06:04.704Z,22.50
2023-05-19T16:08:31.711Z,22.40
2023-05-19T16:10:58.686Z,22.50
2023-05-19T16:13:25.670Z,22.60
2023-05-19T16:15:52.773Z,22.60
2023-05-19T16:18:19.805Z,22.70
2023-05-19T16:20:46.668Z,22.70
2023-05-19T16:23:13.498Z,22.60
2023-05-19T16:25:41.383Z,22.50
2023-05-19T16:28:08.541Z,22.40
2023-05-19T16:30:35.848Z,22.40
2023-05-19T16:33:03.644Z,22.30
2023-05-19T16:35:31.152Z,22.20
2023-05-19T16:38:09.517Z,22.20
2023-05-19T16:41:10.820Z,22.10
2023-05-19T16:43:37.876Z,22.00
2023-05-19T16:46:05.358Z,21.90
2023-05-19T16:48:32.330Z,21.90
2023-05-19T16:50:59.668Z,21.90
2023-05-19T16:53:26.656Z,21.90
2023-05-19T16:55:53.686Z,22.00
2023-05-19T16:58:20.575Z,21.90
2023-05-19T17:00:51.869Z,21.90
2023-05-19T17:03:19.431Z,21.90
2023-05-19T17:05:46.436Z,21.80
2023-05-19T17:08:13.728Z,21.80
2023-05-19T17:10:40.687Z,21.80
2023-05-19T17:13:07.707Z,21.70
2023-05-19T17:15:35.003Z,21.70
2023-05-19T17:18:02.058Z,21.70
2023-05-19T17:20:28.925Z,21.60
2023-05-19T17:22:56.498Z,21.60
2023-05-19T17:25:23.366Z,21.60
2023-05-19T17:27:51.441Z,21.60
2023-05-19T17:30:18.312Z,21.50
2023-05-19T17:32:45.959Z,21.50
2023-05-19T17:35:12.951Z,21.40
2023-05-19T17:37:39.834Z,21.20
2023-05-19T17:40:07.599Z,21.20
2023-05-19T17:42:34.499Z,21.10
2023-05-19T17:45:01.562Z,21.00
2023-05-19T17:47:28.555Z,20.90
2023-05-19T17:49:55.472Z,20.80
2023-05-19T17:52:22.702Z,20.70
2023-05-19T17:54:50.555Z,20.70
2023-05-19T17:57:18.490Z,20.60
2023-05-19T17:59:45.758Z,20.50
2023-05-19T18:02:13.366Z,20.40
2023-05-19T18:04:41.138Z,20.30
2023-05-19T18:07:09.637Z,20.20
2023-05-19T18:09:44.771Z,20.20
2023-05-19T18:12:12.567Z,20.10
2023-05-19T18:14:39.748Z,20.00
2023-05-19T18:17:07.098Z,20.00
2023-05-19T18:19:33.929Z,19.90
2023-05-19T18:22:01.253Z,19.80
2023-05-19T18:24:28.160Z,19.70
2023-05-19T18:26:55.003Z,19.60
2023-05-19T18:29:21.844Z,19.50
2023-05-19T18:31:49.005Z,19.40
2023-05-19T18:34:15.872Z,19.30
2023-05-19T18:36:42.878Z,19.20
2023-05-19T18:39:10.276Z,19.20
2023-05-19T18:41:41.079Z,19.10
2023-05-19T18:44:08.125Z,19.00
2023-05-19T18:46:35.239Z,18.90
2023-05-19T18:49:03.650Z,18.90
2023-05-19T18:51:32.914Z,18.80
2023-05-19T18:53:59.783Z,18.70
2023-05-19T18:56:28.381Z,18.60
2023-05-19T18:58:55.548Z,18.60
2023-05-19T19:01:22.777Z,18.50
2023-05-19T19:03:49.857Z,18.40
2023-05-19T19:06:17.287Z,18.40
2023-05-19T19:08:44.938Z,18.30
2023-05-19T19:11:11.907Z,18.20
2023-05-19T19:13:39.565Z,18.10
2023-05-19T19:16:06.802Z,18.10
2023-05-19T19:18:35.609Z,18.00
2023-05-19T19:21:05.417Z,17.90
2023-05-19T19:23:32.629Z,17.80
2023-05-19T19:25:59.802Z,17.70
2023-05-19T19:28:26.851Z,17.60
2023-05-19T19:30:53.795Z,17.50
2023-05-19T19:33:20.749Z,17.40
2023-05-19T19:35:47.670Z,17.30
2023-05-19T19:38:14.684Z,17.30
2023-05-19T19:40:41.691Z,17.20
2023-05-19T19:43:08.933Z,17.10
2023-05-19T19:45:39.134Z,17.10
2023-05-19T19:48:07.176Z,17.00
2023-05-19T19:50:34.690Z,16.90
2023-05-19T19:53:02.179Z,16.80
2023-05-19T19:55:30.646Z,16.70
2023-05-19T19:57:57.664Z,16.70
2023-05-19T20:00:24.706Z,16.60
2023-05-19T20:03:04.346Z,16.60
2023-05-19T20:05:32.606Z,16.50
2023-05-19T20:07:59.573Z,16.40
2023-05-19T20:10:26.530Z,16.40
2023-05-19T20:12:53.473Z,16.30
2023-05-19T20:15:20.536Z,16.40
2023-05-19T20:17:47.839Z,16.20
2023-05-19T20:20:14.898Z,16.20
2023-05-19T20:22:41.763Z,16.20
2023-05-19T20:25:09.056Z,16.10
2023-05-19T20:27:36.018Z,16.10
2023-05-19T20:30:03.882Z,16.00
2023-05-19T20:32:30.892Z,16.00
2023-05-19T20:34:58.037Z,15.90
2023-05-19T20:37:24.953Z,15.90
2023-05-19T20:39:52.106Z,15.80
2023-05-19T20:42:19.026Z,15.80
2023-05-19T20:44:46.045Z,15.70
2023-05-19T20:47:12.961Z,15.70
2023-05-19T20:49:40.031Z,15.70
2023-05-19T20:52:07.030Z,15.60
2023-05-19T20:54:33.948Z,15.50
2023-05-19T20:57:06.241Z,15.60
2023-05-19T20:59:33.219Z,15.50
2023-05-19T21:02:00.060Z,15.50
2023-05-19T21:04:27.016Z,15.50
2023-05-19T21:06:54.254Z,15.40
2023-05-19T21:09:22.175Z,15.40
2023-05-19T21:11:49.028Z,15.30
2023-05-19T21:14:16.065Z,15.30
2023-05-19T21:16:43.127Z,15.30
2023-05-19T21:19:10.478Z,15.20
2023-05-19T21:21:39.174Z,15.20
2023-05-19T21:24:06.262Z,15.20
2023-05-19T21:26:33.077Z,15.10
2023-05-19T21:29:00.264Z,15.10
2023-05-19T21:31:27.167Z,15.10
2023-05-19T21:33:54.188Z,15.10
2023-05-19T21:36:21.129Z,15.00
2023-05-19T21:38:48.021Z,15.00
2023-05-19T21:41:15.077Z,15.00
2023-05-19T21:43:42.119Z,15.00
2023-05-19T21:46:08.996Z,15.00
2023-05-19T21:48:36.269Z,14.90
2023-05-19T21:51:03.088Z,14.90
2023-05-19T21:53:31.348Z,14.90
2023-05-19T21:55:58.679Z,14.90
2023-05-19T21:58:25.891Z,14.80
2023-05-19T22:00:56.689Z,14.80
2023-05-19T22:03:23.717Z,14.80
2023-05-19T22:05:51.879Z,14.70
2023-05-19T22:08:20.124Z,14.70
2023-05-19T22:10:53.443Z,14.70
2023-05-19T22:13:20.690Z,14.70
2023-05-19T22:15:47.752Z,14.70
2023-05-19T22:18:14.697Z,14.70
2023-05-19T22:20:41.744Z,14.70
2023-05-19T22:23:08.861Z,14.70
2023-05-19T22:25:36.142Z,14.70
2023-05-19T22:28:03.164Z,14.70
2023-05-19T22:30:30.037Z,14.70
2023-05-19T22:32:57.261Z,14.70
2023-05-19T22:35:24.283Z,14.70
2023-05-19T22:37:51.326Z,14.70
2023-05-19T22:40:18.317Z,14.70
2023-05-19T22:42:45.208Z,14.70
2023-05-19T22:45:12.331Z,14.70
2023-05-19T22:47:39.487Z,14.70
2023-05-19T22:50:09.814Z,14.80
2023-05-19T22:52:37.539Z,14.80
2023-05-19T22:55:04.925Z,14.80
2023-05-19T22:57:31.796Z,14.80
2023-05-19T22:59:58.602Z,14.70
2023-05-19T23:02:26.703Z,14.80
2023-05-19T23:04:54.010Z,14.70
2023-05-19T23:07:21.505Z,14.70
2023-05-19T23:09:48.615Z,14.70
2023-05-19T23:12:16.517Z,14.70
2023-05-19T23:14:43.404Z,14.60
2023-05-19T23:17:10.350Z,14.60
2023-05-19T23:19:37.243Z,14.60
2023-05-19T23:22:04.292Z,14.60
2023-05-19T23:24:32.392Z,14.60
2023-05-19T23:27:02.141Z,14.60
2023-05-19T23:29:29.340Z,14.60
2023-05-19T23:31:56.691Z,14.60
2023-05-19T23:34:23.574Z,14.60
2023-05-19T23:36:50.812Z,14.50
2023-05-19T23:39:17.683Z,14.50
2023-05-19T23:41:44.885Z,14.50
2023-05-19T23:44:11.877Z,14.50
2023-05-19T23:46:38.754Z,14.50
2023-05-19T23:49:06.410Z,14.40
2023-05-19T23:51:33.327Z,14.50
2023-05-19T23:54:00.449Z,14.40
2023-05-19T23:56:27.290Z,14.40
2023-05-19T23:58:54.135Z,14.40
